createdAt,value
2023-02-13T00:00:43.958Z,-0.61
2023-02-13T00:03:10.350Z,-0.60
2023-02-13T00:05:36.875Z,-0.60
2023-02-13T00:08:03.736Z,-0.58
2023-02-13T00:10:30.240Z,-0.61
2023-02-13T00:12:57.024Z,-0.61
2023-02-13T00:15:23.594Z,-0.61
2023-02-13T00:17:50.129Z,-0.64
2023-02-13T00:20:16.718Z,-0.64
2023-02-13T00:22:43.209Z,-0.71
2023-02-13T00:25:09.724Z,-0.74
2023-02-13T00:27:38.713Z,-0.79
2023-02-13T00:30:06.141Z,-0.85
2023-02-13T00:32:32.742Z,-0.89
2023-02-13T00:34:59.438Z,-0.94
2023-02-13T00:37:26.379Z,-0.99
2023-02-13T00:39:53.077Z,-1.03
2023-02-13T00:42:19.901Z,-1.04
2023-02-13T00:44:46.312Z,-1.05
2023-02-13T00:47:12.856Z,-1.09
2023-02-13T00:49:39.334Z,-1.13
2023-02-13T00:52:05.818Z,-1.12
2023-02-13T00:54:32.606Z,-1.16
2023-02-13T00:56:59.139Z,-1.19
2023-02-13T00:59:27.185Z,-1.23
2023-02-13T01:01:53.723Z,-1.29
2023-02-13T01:04:20.275Z,-1.29
2023-02-13T01:06:46.722Z,-1.29
2023-02-13T01:09:14.418Z,-1.28
2023-02-13T01:11:40.897Z,-1.29
2023-02-13T01:14:07.365Z,-1.28
2023-02-13T01:16:33.754Z,-1.28
2023-02-13T01:19:00.456Z,-1.32
2023-02-13T01:21:26.898Z,-1.35
2023-02-13T01:23:53.662Z,-1.34
2023-02-13T01:26:23.180Z,-1.37
2023-02-13T01:28:53.081Z,-1.43
2023-02-13T01:31:19.571Z,-1.47
2023-02-13T01:33:46.295Z,-1.51
2023-02-13T01:36:13.309Z,-1.53
2023-02-13T01:38:40.581Z,-1.55
2023-02-13T01:41:08.213Z,-1.56
2023-02-13T01:43:48.409Z,-1.60
2023-02-13T01:46:36.109Z,-1.63
2023-02-13T01:49:13.765Z,-1.65
2023-02-13T01:51:41.505Z,-1.68
2023-02-13T01:54:13.089Z,-1.70
2023-02-13T01:56:55.820Z,-1.70
2023-02-13T01:59:37.873Z,-1.72
2023-02-13T02:02:04.523Z,-1.74
2023-02-13T02:04:38.554Z,-1.75
2023-02-13T02:07:10.887Z,-1.74
2023-02-13T02:09:40.890Z,-1.74
2023-02-13T02:12:19.693Z,-1.77
2023-02-13T02:14:46.808Z,-1.73
2023-02-13T02:17:13.508Z,-1.80
2023-02-13T02:20:07.930Z,-1.82
2023-02-13T02:23:16.672Z,-1.87
2023-02-13T02:26:06.489Z,-1.91
2023-02-13T02:28:57.096Z,-1.92
2023-02-13T02:32:00.544Z,-1.97
2023-02-13T02:34:47.093Z,-1.99
2023-02-13T02:37:25.634Z,-2.01
2023-02-13T02:40:34.554Z,-2.02
2023-02-13T02:43:19.781Z,-2.04
2023-02-13T02:46:01.123Z,-2.04
2023-02-13T02:48:46.819Z,-2.04
2023-02-13T02:51:41.446Z,-2.07
2023-02-13T02:54:22.229Z,-2.08
2023-02-13T02:56:50.650Z,-2.09
2023-02-13T02:59:20.728Z,-2.11
2023-02-13T03:01:48.239Z,-2.11
2023-02-13T03:04:46.287Z,-2.07
2023-02-13T03:07:16.361Z,-2.11
2023-02-13T03:09:48.282Z,-2.13
2023-02-13T03:12:19.834Z,-2.17
2023-02-13T03:14:46.315Z,-2.20
2023-02-13T03:17:15.938Z,-2.20
2023-02-13T03:19:55.681Z,-2.23
2023-02-13T03:22:41.915Z,-2.26
2023-02-13T03:25:08.494Z,-2.25
2023-02-13T03:27:44.206Z,-2.26
2023-02-13T03:30:47.969Z,-2.28
2023-02-13T03:33:26.042Z,-2.27
2023-02-13T03:36:13.158Z,-2.31
2023-02-13T03:38:47.050Z,-2.32
2023-02-13T03:41:19.886Z,-2.34
2023-02-13T03:44:06.117Z,-2.37
2023-02-13T03:46:38.806Z,-2.36
2023-02-13T03:49:07.932Z,-2.37
2023-02-13T03:51:40.107Z,-2.37
2023-02-13T03:54:16.932Z,-2.37
2023-02-13T03:56:45.488Z,-2.38
2023-02-13T03:59:22.457Z,-2.39
2023-02-13T04:01:55.481Z,-2.38
2023-02-13T04:04:48.702Z,-2.39
2023-02-13T04:07:18.818Z,-2.38
2023-02-13T04:09:45.594Z,-2.37
2023-02-13T04:12:30.519Z,-2.38
2023-02-13T04:15:09.608Z,-2.34
2023-02-13T04:17:46.059Z,-2.35
2023-02-13T04:20:13.358Z,-2.35
2023-02-13T04:22:44.682Z,-2.39
2023-02-13T04:25:13.803Z,-2.39
2023-02-13T04:27:40.253Z,-2.39
2023-02-13T04:30:07.540Z,-2.37
2023-02-13T04:32:34.212Z,-2.35
2023-02-13T04:35:01.081Z,-2.38
2023-02-13T04:37:27.678Z,-2.37
2023-02-13T04:39:54.223Z,-2.41
2023-02-13T04:42:20.659Z,-2.42
2023-02-13T04:44:47.355Z,-2.39
2023-02-13T04:47:13.797Z,-2.44
2023-02-13T04:49:40.223Z,-2.41
2023-02-13T04:52:06.735Z,-2.35
2023-02-13T04:54:33.283Z,-2.39
2023-02-13T04:56:59.889Z,-2.37
2023-02-13T04:59:26.380Z,-2.35
2023-02-13T05:01:53.318Z,-2.34
2023-02-13T05:04:19.845Z,-2.35
2023-02-13T05:06:46.436Z,-2.39
2023-02-13T05:09:13.028Z,-2.39
2023-02-13T05:11:39.426Z,-2.44
2023-02-13T05:14:05.867Z,-2.44
2023-02-13T05:16:32.949Z,-2.48
2023-02-13T05:18:59.374Z,-2.54
2023-02-13T05:21:27.277Z,-2.56
2023-02-13T05:23:53.806Z,-2.60
2023-02-13T05:26:22.506Z,-2.61
2023-02-13T05:28:48.927Z,-2.61
2023-02-13T05:31:15.746Z,-2.66
2023-02-13T05:33:42.631Z,-2.66
2023-02-13T05:36:09.364Z,-2.65
2023-02-13T05:38:36.031Z,-2.61
2023-02-13T05:41:02.678Z,-2.59
2023-02-13T05:43:29.604Z,-2.59
2023-02-13T05:46:02.721Z,-2.63
2023-02-13T05:48:30.521Z,-2.67
2023-02-13T05:50:57.660Z,-2.69
2023-02-13T05:53:24.697Z,-2.73
2023-02-13T05:55:51.444Z,-2.71
2023-02-13T05:58:21.681Z,-2.73
2023-02-13T06:00:48.504Z,-2.76
2023-02-13T06:03:15.699Z,-2.75
2023-02-13T06:05:42.229Z,-2.73
2023-02-13T06:08:08.639Z,-2.74
2023-02-13T06:10:35.209Z,-2.74
2023-02-13T06:13:01.752Z,-2.79
2023-02-13T06:15:29.143Z,-2.81
2023-02-13T06:17:56.101Z,-2.77
2023-02-13T06:20:22.704Z,-2.78
2023-02-13T06:22:50.821Z,-2.76
2023-02-13T06:25:17.561Z,-2.79
2023-02-13T06:27:44.587Z,-2.85
2023-02-13T06:30:11.956Z,-2.93
2023-02-13T06:32:39.839Z,-2.95
2023-02-13T06:35:07.011Z,-3.02
2023-02-13T06:37:34.811Z,-3.02
2023-02-13T06:40:01.396Z,-3.06
2023-02-13T06:42:28.112Z,-3.09
2023-02-13T06:44:54.833Z,-3.06
2023-02-13T06:47:21.791Z,-3.05
2023-02-13T06:49:48.477Z,-2.97
2023-02-13T06:52:15.140Z,-2.91
2023-02-13T06:54:47.768Z,-2.93
2023-02-13T06:57:15.451Z,-2.94
2023-02-13T06:59:42.251Z,-2.93
2023-02-13T07:02:13.460Z,-2.90
2023-02-13T07:04:40.328Z,-2.85
2023-02-13T07:07:09.872Z,-2.85
2023-02-13T07:09:37.013Z,-2.81
2023-02-13T07:12:04.610Z,-2.79
2023-02-13T07:14:31.369Z,-2.68
2023-02-13T07:16:58.703Z,-2.63
2023-02-13T07:19:25.319Z,-2.59
2023-02-13T07:21:54.364Z,-2.57
2023-02-13T07:24:20.853Z,-2.57
2023-02-13T07:26:47.789Z,-2.59
2023-02-13T07:29:14.737Z,-2.64
2023-02-13T07:31:41.634Z,-2.56
2023-02-13T07:34:09.614Z,-2.50
2023-02-13T07:36:36.268Z,-2.46
2023-02-13T07:39:02.639Z,-2.41
2023-02-13T07:41:29.092Z,-2.37
2023-02-13T07:43:56.020Z,-2.35
2023-02-13T07:46:22.579Z,-2.43
2023-02-13T07:48:49.167Z,-2.42
2023-02-13T07:51:15.673Z,-2.40
2023-02-13T07:53:42.362Z,-2.28
2023-02-13T07:56:11.013Z,-2.10
2023-02-13T07:58:38.195Z,-2.15
2023-02-13T08:01:13.702Z,-1.99
2023-02-13T08:03:40.682Z,-1.98
2023-02-13T08:06:08.584Z,-1.92
2023-02-13T08:08:36.210Z,-1.78
2023-02-13T08:11:23.271Z,-1.34
2023-02-13T08:13:49.838Z,-1.08
2023-02-13T08:16:16.931Z,-0.86
2023-02-13T08:18:44.408Z,-0.69
2023-02-13T08:21:11.340Z,-0.82
2023-02-13T08:23:38.046Z,-0.78
2023-02-13T08:26:04.640Z,-0.59
2023-02-13T08:28:31.471Z,-0.44
2023-02-13T08:30:58.276Z,-0.53
2023-02-13T08:33:25.074Z,-0.68
2023-02-13T08:35:51.875Z,-0.29
2023-02-13T08:38:18.373Z,-0.21
2023-02-13T08:40:44.790Z,0.22
2023-02-13T08:43:11.422Z,0.30
2023-02-13T08:45:38.443Z,0.67
2023-02-13T08:48:05.104Z,0.79
2023-02-13T08:50:31.716Z,1.10
2023-02-13T08:52:58.818Z,1.03
2023-02-13T08:55:26.021Z,1.19
2023-02-13T08:57:52.494Z,1.17
2023-02-13T09:00:19.542Z,0.85
2023-02-13T09:02:46.220Z,1.13
2023-02-13T09:05:12.729Z,1.55
2023-02-13T09:07:39.275Z,2.05
2023-02-13T09:10:06.821Z,2.04
2023-02-13T09:12:33.241Z,1.92
2023-02-13T09:14:59.729Z,1.94
2023-02-13T09:17:26.230Z,2.15
2023-02-13T09:19:52.750Z,2.19
2023-02-13T09:22:19.443Z,2.50
2023-02-13T09:24:46.201Z,2.63
2023-02-13T09:27:13.020Z,2.62
2023-02-13T09:29:39.676Z,2.77
2023-02-13T09:32:06.403Z,3.04
2023-02-13T09:34:33.171Z,2.99
2023-02-13T09:36:59.541Z,3.59
2023-02-13T09:39:26.416Z,4.27
2023-02-13T09:41:54.569Z,4.00
2023-02-13T09:44:26.899Z,4.16
2023-02-13T09:46:53.893Z,4.71
2023-02-13T09:49:26.238Z,5.12
2023-02-13T09:51:57.292Z,4.86
2023-02-13T09:54:24.313Z,5.11
2023-02-13T09:57:00.021Z,5.38
2023-02-13T09:59:32.326Z,5.24
2023-02-13T10:02:14.259Z,5.16
2023-02-13T10:04:52.542Z,4.95
2023-02-13T10:07:40.263Z,5.10
2023-02-13T10:10:30.278Z,5.43
2023-02-13T10:13:23.545Z,6.04
2023-02-13T10:15:53.152Z,5.28
2023-02-13T10:18:24.607Z,5.59
2023-02-13T10:20:51.150Z,5.93
2023-02-13T10:23:39.094Z,6.39
2023-02-13T10:26:11.647Z,6.63
2023-02-13T10:28:46.951Z,6.64
2023-02-13T10:31:22.794Z,6.90
2023-02-13T10:33:51.665Z,6.83
2023-02-13T10:36:24.690Z,6.81
2023-02-13T10:39:13.419Z,6.32
2023-02-13T10:41:54.912Z,6.32
2023-02-13T10:44:30.413Z,6.62
2023-02-13T10:47:26.583Z,6.82
2023-02-13T10:50:22.653Z,6.92
2023-02-13T10:52:59.063Z,7.10
2023-02-13T10:55:58.012Z,7.51
2023-02-13T10:58:32.814Z,7.16
2023-02-13T11:01:09.685Z,7.00
2023-02-13T11:03:36.158Z,7.04
2023-02-13T11:06:07.649Z,7.74
2023-02-13T11:08:39.339Z,7.47
2023-02-13T11:11:36.250Z,7.99
2023-02-13T11:14:24.145Z,6.91
2023-02-13T11:16:59.333Z,7.32
2023-02-13T11:19:33.764Z,7.15
2023-02-13T11:22:09.138Z,7.30
2023-02-13T11:24:37.003Z,7.43
2023-02-13T11:27:07.240Z,7.20
2023-02-13T11:29:36.514Z,7.23
2023-02-13T11:32:24.797Z,7.48
2023-02-13T11:34:51.595Z,7.48
2023-02-13T11:37:21.394Z,7.75
2023-02-13T11:39:51.425Z,7.24
2023-02-13T11:42:21.008Z,7.82
2023-02-13T11:44:55.016Z,7.91
2023-02-13T11:47:37.857Z,8.59
2023-02-13T11:50:07.778Z,8.74
2023-02-13T11:52:36.106Z,8.67
2023-02-13T11:55:06.907Z,8.48
2023-02-13T11:57:37.682Z,8.26
2023-02-13T12:00:29.284Z,8.72
2023-02-13T12:02:55.951Z,8.06
2023-02-13T12:05:25.491Z,8.71
2023-02-13T12:07:55.595Z,9.00
2023-02-13T12:10:27.572Z,8.55
2023-02-13T12:13:15.496Z,8.63
2023-02-13T12:15:43.492Z,8.71
2023-02-13T12:18:27.821Z,8.52
2023-02-13T12:21:03.661Z,8.69
2023-02-13T12:23:40.743Z,8.66
2023-02-13T12:26:13.729Z,8.72
2023-02-13T12:29:22.652Z,8.62
2023-02-13T12:32:17.487Z,8.64
2023-02-13T12:35:11.539Z,8.54
2023-02-13T12:37:47.049Z,8.31
2023-02-13T12:40:30.009Z,9.43
2023-02-13T12:43:21.551Z,8.64
2023-02-13T12:45:56.396Z,8.57
2023-02-13T12:48:47.566Z,8.31
2023-02-13T12:51:32.921Z,8.45
2023-02-13T12:54:36.761Z,8.52
2023-02-13T12:57:17.645Z,8.46
2023-02-13T12:59:59.209Z,8.30
2023-02-13T13:02:44.422Z,8.24
2023-02-13T13:05:22.517Z,8.40
2023-02-13T13:08:15.119Z,7.94
2023-02-13T13:11:11.315Z,8.14
2023-02-13T13:14:09.273Z,8.13
2023-02-13T13:16:53.182Z,7.97
2023-02-13T13:19:34.930Z,7.96
2023-02-13T13:22:20.615Z,7.87
2023-02-13T13:25:14.397Z,8.14
2023-02-13T13:27:45.027Z,7.93
2023-02-13T13:30:26.143Z,8.14
2023-02-13T13:33:01.463Z,7.84
2023-02-13T13:35:30.458Z,7.81
2023-02-13T13:38:11.468Z,7.82
2023-02-13T13:40:52.996Z,7.63
2023-02-13T13:43:33.343Z,7.82
2023-02-13T13:46:22.584Z,7.92
2023-02-13T13:49:05.114Z,8.03
2023-02-13T13:51:31.658Z,8.22
2023-02-13T13:54:01.198Z,7.98
2023-02-13T13:56:53.423Z,8.16
2023-02-13T13:59:45.836Z,7.76
2023-02-13T14:02:18.469Z,7.66
2023-02-13T14:05:26.553Z,7.47
2023-02-13T14:08:31.886Z,7.59
2023-02-13T14:11:01.820Z,7.57
2023-02-13T14:13:34.652Z,7.59
2023-02-13T14:16:02.112Z,7.73
2023-02-13T14:18:30.349Z,7.42
2023-02-13T14:21:01.753Z,7.49
2023-02-13T14:23:28.507Z,7.38
2023-02-13T14:26:16.622Z,7.44
2023-02-13T14:28:49.222Z,7.32
2023-02-13T14:31:30.794Z,7.18
2023-02-13T14:34:17.796Z,6.75
2023-02-13T14:36:48.427Z,6.93
2023-02-13T14:39:28.654Z,6.73
2023-02-13T14:41:55.193Z,6.59
2023-02-13T14:44:36.186Z,6.85
2023-02-13T14:47:14.070Z,6.64
2023-02-13T14:49:42.109Z,6.45
2023-02-13T14:52:19.156Z,6.76
2023-02-13T14:54:50.398Z,6.60
2023-02-13T14:57:42.359Z,6.60
2023-02-13T15:00:27.627Z,6.53
2023-02-13T15:02:59.684Z,6.47
2023-02-13T15:05:32.812Z,6.16
2023-02-13T15:08:18.489Z,6.13
2023-02-13T15:10:50.879Z,6.12
2023-02-13T15:13:23.315Z,5.96
2023-02-13T15:16:11.830Z,5.98
2023-02-13T15:18:44.424Z,5.91
2023-02-13T15:21:17.207Z,5.81
2023-02-13T15:23:44.573Z,5.88
2023-02-13T15:26:20.487Z,5.88
2023-02-13T15:29:25.838Z,5.64
2023-02-13T15:31:55.041Z,5.52
2023-02-13T15:34:26.836Z,5.44
2023-02-13T15:36:54.376Z,5.33
2023-02-13T15:39:25.703Z,5.24
2023-02-13T15:41:55.948Z,5.15
2023-02-13T15:44:26.741Z,5.10
2023-02-13T15:46:54.518Z,5.03
2023-02-13T15:49:24.582Z,5.05
2023-02-13T15:52:01.801Z,5.02
2023-02-13T15:54:33.816Z,4.91
2023-02-13T15:57:04.681Z,4.92
2023-02-13T15:59:33.851Z,4.80
2023-02-13T16:02:01.281Z,4.70
2023-02-13T16:04:28.153Z,4.81
2023-02-13T16:06:56.406Z,4.82
2023-02-13T16:09:31.456Z,4.48
2023-02-13T16:12:07.475Z,4.58
2023-02-13T16:14:37.168Z,4.53
2023-02-13T16:17:07.871Z,4.53
2023-02-13T16:19:41.915Z,4.40
2023-02-13T16:22:26.437Z,4.13
2023-02-13T16:24:55.642Z,4.01
2023-02-13T16:27:27.591Z,4.07
2023-02-13T16:30:00.284Z,3.82
2023-02-13T16:32:32.187Z,3.60
2023-02-13T16:35:17.047Z,3.44
2023-02-13T16:37:53.240Z,3.35
2023-02-13T16:40:36.988Z,3.36
2023-02-13T16:43:41.248Z,3.35
2023-02-13T16:46:23.089Z,3.21
2023-02-13T16:48:58.478Z,3.05
2023-02-13T16:51:30.895Z,2.95
2023-02-13T16:54:03.495Z,2.92
2023-02-13T16:56:52.354Z,2.77
2023-02-13T16:59:26.847Z,2.80
2023-02-13T17:02:14.281Z,2.66
2023-02-13T17:04:51.388Z,2.67
2023-02-13T17:07:24.044Z,2.54
2023-02-13T17:09:59.830Z,2.44
2023-02-13T17:12:28.985Z,2.45
2023-02-13T17:14:57.910Z,2.45
2023-02-13T17:17:26.267Z,2.35
2023-02-13T17:19:52.681Z,2.27
2023-02-13T17:22:40.770Z,2.21
2023-02-13T17:25:23.769Z,2.16
2023-02-13T17:27:55.499Z,2.14
2023-02-13T17:30:31.038Z,2.06
2023-02-13T17:33:00.642Z,2.09
2023-02-13T17:35:27.221Z,2.10
2023-02-13T17:37:54.158Z,2.10
2023-02-13T17:40:24.282Z,2.11
2023-02-13T17:42:54.375Z,1.86
2023-02-13T17:45:23.875Z,1.83
2023-02-13T17:47:50.440Z,1.72
2023-02-13T17:50:17.064Z,1.70
2023-02-13T17:52:45.445Z,1.66
2023-02-13T17:55:28.554Z,1.64
2023-02-13T17:57:56.759Z,1.68
2023-02-13T18:00:25.370Z,1.59
2023-02-13T18:02:52.075Z,1.54
2023-02-13T18:05:19.299Z,1.45
2023-02-13T18:07:47.065Z,1.42
2023-02-13T18:10:23.335Z,1.41
2023-02-13T18:12:50.724Z,1.39
2023-02-13T18:15:18.686Z,1.37
2023-02-13T18:17:45.311Z,1.30
2023-02-13T18:20:16.802Z,1.28
2023-02-13T18:22:43.858Z,1.26
2023-02-13T18:25:11.077Z,1.19
2023-02-13T18:27:37.563Z,1.15
2023-02-13T18:30:04.717Z,1.12
2023-02-13T18:32:32.853Z,1.11
2023-02-13T18:34:59.421Z,1.13
2023-02-13T18:37:25.925Z,1.09
2023-02-13T18:39:52.639Z,1.04
2023-02-13T18:42:18.958Z,1.02
2023-02-13T18:44:45.442Z,1.04
2023-02-13T18:47:11.953Z,1.04
2023-02-13T18:49:38.777Z,1.01
2023-02-13T18:52:05.876Z,0.95
2023-02-13T18:54:32.565Z,0.94
2023-02-13T18:56:58.967Z,0.91
2023-02-13T18:59:25.382Z,0.93
2023-02-13T19:01:51.841Z,0.88
2023-02-13T19:04:18.346Z,0.85
2023-02-13T19:06:45.034Z,0.77
2023-02-13T19:09:11.555Z,0.82
2023-02-13T19:11:38.384Z,0.82
2023-02-13T19:14:05.627Z,0.80
2023-02-13T19:16:34.898Z,0.82
2023-02-13T19:19:04.525Z,0.80
2023-02-13T19:21:33.222Z,0.76
2023-02-13T19:24:02.659Z,0.65
2023-02-13T19:26:29.562Z,0.56
2023-02-13T19:28:57.606Z,0.49
2023-02-13T19:31:26.814Z,0.42
2023-02-13T19:33:53.649Z,0.42
2023-02-13T19:36:22.964Z,0.45
2023-02-13T19:39:00.794Z,0.50
2023-02-13T19:41:27.648Z,0.57
2023-02-13T19:43:54.402Z,0.58
2023-02-13T19:46:23.981Z,0.58
2023-02-13T19:48:51.055Z,0.57
2023-02-13T19:51:21.646Z,0.54
2023-02-13T19:53:48.681Z,0.46
2023-02-13T19:56:15.591Z,0.45
2023-02-13T19:58:43.710Z,0.36
2023-02-13T20:01:19.671Z,0.28
2023-02-13T20:03:46.601Z,0.17
2023-02-13T20:06:19.828Z,0.07
2023-02-13T20:08:46.927Z,0.04
2023-02-13T20:11:15.372Z,-0.01
2023-02-13T20:13:41.879Z,-0.04
2023-02-13T20:16:11.653Z,-0.08
2023-02-13T20:18:39.539Z,-0.12
2023-02-13T20:21:16.565Z,-0.14
2023-02-13T20:23:47.877Z,-0.18
2023-02-13T20:26:14.940Z,-0.21
2023-02-13T20:28:42.742Z,-0.27
2023-02-13T20:31:21.105Z,-0.28
2023-02-13T20:33:49.977Z,-0.16
2023-02-13T20:36:23.029Z,-0.06
2023-02-13T20:38:52.210Z,-0.05
2023-02-13T20:41:21.621Z,-0.09
2023-02-13T20:43:48.387Z,-0.19
2023-02-13T20:46:16.133Z,-0.27
2023-02-13T20:48:44.022Z,-0.33
2023-02-13T20:51:12.854Z,-0.37
2023-02-13T20:53:40.645Z,-0.43
2023-02-13T20:56:08.408Z,-0.47
2023-02-13T20:58:36.134Z,-0.48
2023-02-13T21:01:04.081Z,-0.52
2023-02-13T21:03:30.618Z,-0.56
2023-02-13T21:05:57.175Z,-0.62
2023-02-13T21:08:23.682Z,-0.67
2023-02-13T21:10:50.316Z,-0.72
2023-02-13T21:13:16.793Z,-0.75
2023-02-13T21:15:43.580Z,-0.84
2023-02-13T21:18:12.284Z,-0.89
2023-02-13T21:20:38.834Z,-0.90
2023-02-13T21:23:05.918Z,-0.93
2023-02-13T21:25:34.081Z,-0.94
2023-02-13T21:28:01.003Z,-0.97
2023-02-13T21:30:27.532Z,-1.00
2023-02-13T21:32:54.406Z,-1.01
2023-02-13T21:35:20.802Z,-1.07
2023-02-13T21:37:47.233Z,-1.08
2023-02-13T21:40:13.767Z,-1.12
2023-02-13T21:42:40.233Z,-1.17
2023-02-13T21:45:07.073Z,-1.15
2023-02-13T21:47:33.526Z,-1.21
2023-02-13T21:49:59.977Z,-1.24
2023-02-13T21:52:26.439Z,-1.23
2023-02-13T21:54:52.993Z,-1.28
2023-02-13T21:57:19.550Z,-1.31
2023-02-13T21:59:46.676Z,-1.32
2023-02-13T22:02:13.231Z,-1.37
2023-02-13T22:04:41.939Z,-1.40
2023-02-13T22:07:08.368Z,-1.44
2023-02-13T22:09:34.878Z,-1.47
2023-02-13T22:12:01.610Z,-1.44
2023-02-13T22:14:28.144Z,-1.44
2023-02-13T22:16:54.649Z,-1.44
2023-02-13T22:19:21.676Z,-1.46
2023-02-13T22:21:48.341Z,-1.50
2023-02-13T22:24:15.127Z,-1.45
2023-02-13T22:26:43.261Z,-1.50
2023-02-13T22:29:12.625Z,-1.55
2023-02-13T22:31:39.607Z,-1.57
2023-02-13T22:34:07.079Z,-1.56
2023-02-13T22:36:35.588Z,-1.60
2023-02-13T22:39:02.305Z,-1.65
2023-02-13T22:41:28.913Z,-1.69
2023-02-13T22:43:55.817Z,-1.72
2023-02-13T22:46:30.757Z,-1.77
2023-02-13T22:48:57.600Z,-1.77
2023-02-13T22:51:27.398Z,-1.81
2023-02-13T22:53:55.724Z,-1.86
2023-02-13T22:56:23.882Z,-1.90
2023-02-13T22:58:50.642Z,-1.90
2023-02-13T23:01:19.574Z,-1.92
2023-02-13T23:03:46.467Z,-1.93
2023-02-13T23:06:18.508Z,-1.94
2023-02-13T23:08:45.315Z,-1.95
2023-02-13T23:11:14.778Z,-1.94
2023-02-13T23:13:43.804Z,-1.92
2023-02-13T23:16:14.757Z,-1.94
2023-02-13T23:18:41.640Z,-1.97
2023-02-13T23:21:08.485Z,-2.09
2023-02-13T23:23:36.368Z,-2.11
2023-02-13T23:26:06.732Z,-2.17
2023-02-13T23:28:33.907Z,-2.26
2023-02-13T23:31:02.173Z,-2.25
2023-02-13T23:33:29.392Z,-2.35
2023-02-13T23:35:56.222Z,-2.38
2023-02-13T23:38:23.830Z,-2.40
2023-02-13T23:40:50.341Z,-2.42
2023-02-13T23:43:16.894Z,-2.43
2023-02-13T23:45:43.431Z,-2.47
2023-02-13T23:48:10.067Z,-2.50
2023-02-13T23:50:36.560Z,-2.49
2023-02-13T23:53:03.060Z,-2.49
2023-02-13T23:55:29.819Z,-2.49
2023-02-13T23:57:56.316Z,-2.56
